createdAt,value
2024-01-15T00:03:26.884Z,98844.16
2024-01-15T00:08:23.484Z,98823.22
2024-01-15T00:13:19.937Z,98820.31
2024-01-15T00:18:16.459Z,98815.81
2024-01-15T00:23:13.057Z,98814.72
2024-01-15T00:28:09.520Z,98817.03
2024-01-15T00:33:06.110Z,98810.88
2024-01-15T00:38:02.617Z,98818.63
2024-01-15T00:42:59.002Z,98813.28
2024-01-15T00:47:57.682Z,98812.81
2024-01-15T00:52:54.248Z,98804.03
2024-01-15T00:57:50.703Z,98804.03
2024-01-15T01:02:47.253Z,98810.13
2024-01-15T01:07:43.760Z,98799.72
2024-01-15T01:12:40.237Z,98787.56
2024-01-15T01:17:37.229Z,98779.00
2024-01-15T01:22:33.729Z,98779.00
2024-01-15T01:27:30.192Z,98776.38
2024-01-15T01:32:26.656Z,98773.84
2024-01-15T01:37:23.231Z,98772.28
2024-01-15T01:42:19.778Z,98767.03
2024-01-15T01:47:16.392Z,98771.50
2024-01-15T01:52:14.895Z,98742.00
2024-01-15T01:57:13.015Z,98738.25
2024-01-15T02:02:09.503Z,98734.88
2024-01-15T02:07:06.383Z,98714.91
2024-01-15T02:12:03.535Z,98724.31
2024-01-15T02:17:00.179Z,98713.94
2024-01-15T02:21:56.737Z,98720.88
2024-01-15T02:26:53.243Z,98727.78
2024-01-15T02:31:49.817Z,98720.16
2024-01-15T02:36:46.802Z,98709.69
2024-01-15T02:41:43.304Z,98718.25
2024-01-15T02:46:39.715Z,98698.25
2024-01-15T02:51:36.722Z,98689.47
2024-01-15T02:56:33.262Z,98704.88
2024-01-15T03:01:29.699Z,98699.56
2024-01-15T03:06:26.218Z,98702.34
2024-01-15T03:11:23.301Z,98699.00
2024-01-15T03:16:21.060Z,98681.53
2024-01-15T03:21:17.568Z,98686.94
2024-01-15T03:26:14.093Z,98690.31
2024-01-15T03:31:10.616Z,98690.22
2024-01-15T03:36:07.708Z,98680.47
2024-01-15T03:41:04.307Z,98675.81
2024-01-15T03:46:00.872Z,98662.72
2024-01-15T03:50:57.312Z,98663.34
2024-01-15T03:55:53.689Z,98650.34
2024-01-15T04:00:50.306Z,98671.28
2024-01-15T04:05:46.849Z,98669.59
2024-01-15T04:10:43.291Z,98671.84
2024-01-15T04:15:39.736Z,98664.91
2024-01-15T04:20:36.162Z,98667.44
2024-01-15T04:25:33.037Z,98644.72
2024-01-15T04:30:29.614Z,98653.53
2024-01-15T04:35:26.174Z,98640.63
2024-01-15T04:40:22.663Z,98642.28
2024-01-15T04:45:19.850Z,98632.97
2024-01-15T04:50:16.641Z,98633.19
2024-01-15T04:55:13.117Z,98631.91
2024-01-15T05:00:10.187Z,98619.25
2024-01-15T05:05:06.844Z,98618.25
2024-01-15T05:10:03.851Z,98628.06
2024-01-15T05:15:00.417Z,98621.34
2024-01-15T05:19:57.084Z,98624.91
2024-01-15T05:24:53.774Z,98629.94
2024-01-15T05:29:50.305Z,98624.63
2024-01-15T05:34:46.983Z,98626.19
2024-01-15T05:39:43.535Z,98626.19
2024-01-15T05:44:39.994Z,98633.09
2024-01-15T05:49:37.368Z,98630.59
2024-01-15T05:54:34.369Z,98622.75
2024-01-15T05:59:33.316Z,98627.25
2024-01-15T06:04:29.885Z,98643.75
2024-01-15T06:09:26.425Z,98638.50
2024-01-15T06:14:22.874Z,98629.94
2024-01-15T06:19:19.367Z,98631.63
2024-01-15T06:24:16.754Z,98648.06
2024-01-15T06:29:13.398Z,98635.19
2024-01-15T06:34:10.022Z,98639.28
2024-01-15T06:39:06.934Z,98652.25
2024-01-15T06:44:03.577Z,98641.69
2024-01-15T06:49:00.142Z,98657.19
2024-01-15T06:53:56.665Z,98640.00
2024-01-15T06:58:53.093Z,98643.56
2024-01-15T07:03:50.124Z,98653.84
2024-01-15T07:08:47.114Z,98664.09
2024-01-15T07:13:43.511Z,98661.28
2024-01-15T07:18:40.100Z,98661.38
2024-01-15T07:23:36.562Z,98671.22
2024-01-15T07:28:32.996Z,98668.41
2024-01-15T07:33:29.561Z,98652.69
2024-01-15T07:38:26.078Z,98668.41
2024-01-15T07:43:23.952Z,98656.25
2024-01-15T07:48:20.581Z,98669.44
2024-01-15T07:53:17.089Z,98663.47
2024-01-15T07:58:16.525Z,98664.28
2024-01-15T08:03:14.127Z,98671.94
2024-01-15T08:08:11.292Z,98677.59
2024-01-15T08:13:09.410Z,98668.88
2024-01-15T08:18:06.429Z,98679.72
2024-01-15T08:23:03.413Z,98677.03
2024-01-15T08:27:59.917Z,98681.50
2024-01-15T08:32:58.480Z,98684.13
2024-01-15T08:37:56.709Z,98673.84
2024-01-15T08:42:53.165Z,98680.13
2024-01-15T08:47:49.706Z,98677.81
2024-01-15T08:52:47.420Z,98678.00
2024-01-15T08:57:44.394Z,98689.47
2024-01-15T09:02:40.977Z,98676.41
2024-01-15T09:07:37.378Z,98686.56
2024-01-15T09:12:33.840Z,98693.41
2024-01-15T09:17:30.337Z,98689.75
2024-01-15T09:22:27.028Z,98697.94
2024-01-15T09:27:23.470Z,98690.09
2024-01-15T09:32:19.886Z,98694.94
2024-01-15T09:37:27.728Z,98688.13
2024-01-15T09:42:32.789Z,98678.50
2024-01-15T09:47:29.237Z,98681.84
2024-01-15T09:52:26.405Z,98678.75
2024-01-15T09:57:22.859Z,98682.97
2024-01-15T10:02:20.144Z,98683.09
2024-01-15T10:07:20.254Z,98671.91
2024-01-15T10:12:17.196Z,98672.53
2024-01-15T10:17:16.886Z,98663.72
2024-01-15T10:22:14.676Z,98664.56
2024-01-15T10:27:11.993Z,98659.47
2024-01-15T10:32:09.963Z,98647.22
2024-01-15T10:37:08.580Z,98643.25
2024-01-15T10:42:05.386Z,98641.91
2024-01-15T10:47:01.959Z,98632.38
2024-01-15T10:51:58.599Z,98635.91
2024-01-15T10:56:56.973Z,98626.22
2024-01-15T11:01:55.659Z,98625.09
2024-01-15T11:06:55.972Z,98620.88
2024-01-15T11:12:14.047Z,98610.22
2024-01-15T11:17:11.177Z,98588.44
2024-01-15T11:22:12.839Z,98591.56
2024-01-15T11:27:10.135Z,98587.38
2024-01-15T11:32:11.025Z,98583.41
2024-01-15T11:37:08.033Z,98584.25
2024-01-15T11:42:06.470Z,98563.50
2024-01-15T11:47:16.613Z,98573.16
2024-01-15T11:52:20.007Z,98571.16
2024-01-15T11:57:38.643Z,98567.06
2024-01-15T12:02:35.546Z,98580.25
2024-01-15T12:07:32.018Z,98572.53
2024-01-15T12:12:46.868Z,98573.53
2024-01-15T12:17:43.542Z,98571.56
2024-01-15T12:22:53.204Z,98570.63
2024-01-15T12:27:57.533Z,98558.28
2024-01-15T12:32:54.095Z,98564.53
2024-01-15T12:37:50.518Z,98564.22
2024-01-15T12:42:47.059Z,98569.16
2024-01-15T12:47:43.870Z,98566.00
2024-01-15T12:52:43.845Z,98552.91
2024-01-15T12:57:40.458Z,98561.59
2024-01-15T13:02:36.949Z,98557.00
2024-01-15T13:07:33.336Z,98562.84
2024-01-15T13:12:29.822Z,98555.31
2024-01-15T13:17:26.246Z,98560.66
2024-01-15T13:22:24.413Z,98561.81
2024-01-15T13:27:21.428Z,98566.03
2024-01-15T13:32:28.977Z,98562.13
2024-01-15T13:37:28.689Z,98562.66
2024-01-15T13:42:25.506Z,98566.66
2024-01-15T13:47:22.075Z,98572.53
2024-01-15T13:52:19.025Z,98576.06
2024-01-15T13:57:15.869Z,98573.75
2024-01-15T14:02:12.898Z,98590.63
2024-01-15T14:07:10.390Z,98590.78
2024-01-15T14:12:07.684Z,98592.56
2024-01-15T14:17:05.037Z,98592.13
2024-01-15T14:22:01.486Z,98598.31
2024-01-15T14:26:58.195Z,98603.88
2024-01-15T14:31:55.322Z,98605.16
2024-01-15T14:36:54.197Z,98620.63
2024-01-15T14:41:50.670Z,98627.94
2024-01-15T14:46:47.117Z,98622.03
2024-01-15T14:51:45.872Z,98645.44
2024-01-15T14:56:43.774Z,98640.63
2024-01-15T15:01:41.290Z,98670.31
2024-01-15T15:06:38.163Z,98688.53
2024-01-15T15:11:34.666Z,98709.34
2024-01-15T15:16:31.661Z,98724.75
2024-01-15T15:21:29.767Z,98721.94
2024-01-15T15:26:26.251Z,98730.44
2024-01-15T15:31:22.789Z,98744.16
2024-01-15T15:36:20.344Z,98744.91
2024-01-15T15:41:16.894Z,98752.75
2024-01-15T15:46:13.355Z,98761.25
2024-01-15T15:51:10.240Z,98776.22
2024-01-15T15:56:07.576Z,98791.16
2024-01-15T16:01:04.491Z,98800.78
2024-01-15T16:06:01.468Z,98810.13
2024-01-15T16:10:58.847Z,98820.50
2024-01-15T16:23:08.636Z,98811.41
2024-01-15T16:23:35.539Z,98807.78
2024-01-15T16:26:28.402Z,98832.47
2024-01-15T16:31:25.115Z,98831.69
2024-01-15T16:36:21.946Z,98839.94
2024-01-15T16:41:18.868Z,98851.13
2024-01-15T16:46:16.165Z,98866.84
2024-01-15T16:51:13.176Z,98861.53
2024-01-15T16:56:09.694Z,98860.88
2024-01-15T17:01:08.877Z,98876.56
2024-01-15T17:06:05.603Z,98881.03
2024-01-15T17:11:02.625Z,98870.13
2024-01-15T17:15:59.823Z,98883.38
2024-01-15T17:20:56.366Z,98888.91
2024-01-15T17:25:52.815Z,98890.00
2024-01-15T17:30:50.209Z,98905.91
2024-01-15T17:35:53.904Z,98918.22
2024-01-15T17:40:50.886Z,98926.81
2024-01-15T17:45:47.979Z,98919.81
2024-01-15T17:50:44.634Z,98925.91
2024-01-15T17:55:41.062Z,98931.00
2024-01-15T18:00:37.966Z,98920.66
2024-01-15T18:05:34.608Z,98914.47
2024-01-15T18:10:31.044Z,98934.41
2024-01-15T18:15:27.452Z,98926.44
2024-01-15T18:20:23.951Z,98917.88
2024-01-15T18:25:20.351Z,98929.25
2024-01-15T18:30:16.941Z,98931.13
2024-01-15T18:35:13.569Z,98938.22
2024-01-15T18:40:11.561Z,98945.22
2024-01-15T18:45:08.754Z,98945.88
2024-01-15T18:50:05.854Z,98958.41
2024-01-15T18:55:02.268Z,98973.50
2024-01-15T18:59:58.655Z,98963.31
2024-01-15T19:04:55.132Z,98980.88
2024-01-15T19:09:51.616Z,98989.53
2024-01-15T19:14:48.108Z,98997.56
2024-01-15T19:19:50.354Z,99007.94
2024-01-15T19:24:46.905Z,99002.53
2024-01-15T19:29:43.431Z,99015.41
2024-01-15T19:34:41.563Z,99022.16
2024-01-15T19:39:37.965Z,99012.03
2024-01-15T19:44:34.378Z,99043.22
2024-01-15T19:49:30.790Z,99040.44
2024-01-15T19:54:27.557Z,99051.66
2024-01-15T19:59:23.933Z,99057.56
2024-01-15T20:04:20.466Z,99056.53
2024-01-15T20:09:16.924Z,99054.09
2024-01-15T20:14:13.832Z,99061.75
2024-01-15T20:19:10.535Z,99086.16
2024-01-15T20:24:07.197Z,99083.06
2024-01-15T20:29:04.057Z,99082.69
2024-01-15T20:34:01.371Z,99093.53
2024-01-15T20:38:58.357Z,99082.88
2024-01-15T20:43:54.774Z,99094.84
2024-01-15T20:48:51.490Z,99093.63
2024-01-15T20:53:50.194Z,99087.59
2024-01-15T20:58:46.715Z,99099.06
2024-01-15T21:03:43.558Z,99105.97
2024-01-15T21:08:42.162Z,99110.38
2024-01-15T21:13:39.470Z,99111.88
2024-01-15T21:18:36.011Z,99122.53
2024-01-15T21:23:33.787Z,99132.06
2024-01-15T21:28:31.275Z,99137.31
2024-01-15T21:33:32.953Z,99144.97
2024-01-15T21:38:29.692Z,99144.13
2024-01-15T21:43:26.127Z,99162.38
2024-01-15T21:48:22.596Z,99177.13
2024-01-15T21:53:19.485Z,99183.47
2024-01-15T21:58:15.907Z,99200.69
2024-01-15T22:03:12.400Z,99204.25
2024-01-15T22:08:08.840Z,99202.19
2024-01-15T22:13:05.466Z,99200.34
2024-01-15T22:18:03.949Z,99206.44
2024-01-15T22:23:00.758Z,99212.47
2024-01-15T22:27:57.270Z,99217.72
2024-01-15T22:32:53.831Z,99218.66
2024-01-15T22:37:50.307Z,99224.81
2024-01-15T22:42:47.595Z,99231.75
2024-01-15T22:47:44.161Z,99240.44
2024-01-15T22:52:41.175Z,99241.97
2024-01-15T22:57:37.878Z,99241.13
2024-01-15T23:02:34.699Z,99241.00
2024-01-15T23:07:31.495Z,99242.63
2024-01-15T23:12:27.945Z,99255.72
2024-01-15T23:17:24.463Z,99254.94
2024-01-15T23:22:21.374Z,99259.56
2024-01-15T23:27:17.811Z,99257.91
2024-01-15T23:32:14.426Z,99262.13
2024-01-15T23:37:10.863Z,99269.03
2024-01-15T23:42:07.250Z,99261.69
2024-01-15T23:47:04.333Z,99285.91
2024-01-15T23:52:00.739Z,99284.31
2024-01-15T23:56:58.860Z,99298.25
